Time;durP1;ratioP1;P1;durP2;ratioP2;P2;SDS_P1;SDS_P2;PMS_P1;PMS_P2;Temp;Humidity;BMP_temperature;BMP_pressure;BME280_temperature;BME280_humidity;BME280_pressure;Samples;Min_cycle;Max_cycle;Signal;HPM_P1;HPM_P2
2022/10/20 00:00:58;;;;;;;54.30;25.58;;;8.60;99.90;;;;;;5070473;28;20023;-83
2022/10/20 00:03:25;;;;;;;54.55;24.48;;;8.60;99.90;;;;;;5081638;28;20024;-84
2022/10/20 00:05:51;;;;;;;49.83;25.23;;;8.50;99.90;;;;;;5058672;28;20028;-84
2022/10/20 00:08:17;;;;;;;53.00;25.10;;;8.60;99.90;;;;;;5063711;28;20454;-84
2022/10/20 00:10:54;;;;;;;58.60;26.25;;;8.60;99.90;;;;;;5070490;28;20170;-84
2022/10/20 00:13:20;;;;;;;54.95;25.05;;;8.50;99.90;;;;;;5070697;28;20036;-84
2022/10/20 00:15:51;;;;;;;54.15;25.63;;;8.40;99.90;;;;;;5076097;28;20058;-83
2022/10/20 00:18:17;;;;;;;52.90;26.33;;;8.50;99.90;;;;;;5078618;28;20069;-84
2022/10/20 00:20:50;;;;;;;51.08;23.73;;;8.50;99.90;;;;;;5065763;28;20262;-84
2022/10/20 00:23:16;;;;;;;51.83;25.17;;;8.40;99.90;;;;;;5063313;28;20027;-84
2022/10/20 00:26:06;;;;;;;46.35;24.65;;;8.40;99.90;;;;;;5062370;28;20028;-84
2022/10/20 00:28:32;;;;;;;54.95;25.92;;;8.40;99.90;;;;;;5076303;28;20499;-84
2022/10/20 00:30:58;;;;;;;45.42;23.65;;;8.30;99.90;;;;;;5086329;28;20024;-83
2022/10/20 00:33:24;;;;;;;52.97;23.65;;;8.40;99.90;;;;;;5053586;28;20025;-83
2022/10/20 00:35:50;;;;;;;48.25;24.27;;;8.40;99.90;;;;;;5086022;28;20032;-84
2022/10/20 00:38:16;;;;;;;49.25;23.67;;;8.40;99.90;;;;;;5055970;28;20024;-84
2022/10/20 00:40:42;;;;;;;48.72;23.02;;;8.40;99.90;;;;;;5085996;28;20122;-85
2022/10/20 00:43:15;;;;;;;42.97;22.02;;;8.40;99.90;;;;;;5060833;28;20115;-84
2022/10/20 00:45:43;;;;;;;46.13;22.75;;;8.50;99.90;;;;;;5071237;28;20139;-84
2022/10/20 00:48:17;;;;;;;42.75;21.95;;;8.50;99.90;;;;;;5081629;28;20024;-83
2022/10/20 00:50:49;;;;;;;47.97;22.48;;;8.40;99.90;;;;;;5073031;28;20039;-84
2022/10/20 00:53:21;;;;;;;41.63;20.60;;;8.40;99.90;;;;;;5065936;28;20418;-83
2022/10/20 00:55:49;;;;;;;39.70;21.35;;;8.40;99.90;;;;;;5091658;28;20039;-85
2022/10/20 00:58:15;;;;;;;38.13;20.60;;;8.40;99.90;;;;;;5068230;28;20676;-84
2022/10/20 01:00:42;;;;;;;45.40;20.95;;;8.40;99.90;;;;;;5073402;28;20013;-83
2022/10/20 01:03:15;;;;;;;37.72;20.25;;;8.40;99.90;;;;;;5065965;28;20053;-84
2022/10/20 01:05:41;;;;;;;39.75;20.38;;;8.40;99.90;;;;;;5064029;28;20025;-84
2022/10/20 01:08:07;;;;;;;35.53;20.08;;;8.40;99.90;;;;;;5077283;28;20141;-83
2022/10/20 01:11:06;;;;;;;33.92;18.30;;;8.40;99.90;;;;;;5069647;28;20024;-84
2022/10/20 01:13:44;;;;;;;40.33;19.45;;;8.40;99.90;;;;;;5065273;28;20123;-84
2022/10/20 01:16:19;;;;;;;38.67;20.10;;;8.40;99.90;;;;;;5061691;28;20547;-84
2022/10/20 01:19:08;;;;;;;34.75;18.60;;;8.40;99.90;;;;;;5077597;28;20068;-84
2022/10/20 01:22:09;;;;;;;34.08;19.52;;;8.40;99.90;;;;;;5100906;28;20111;-84
2022/10/20 01:24:35;;;;;;;41.25;19.02;;;8.40;99.90;;;;;;5055257;28;20029;-84
2022/10/20 01:27:43;;;;;;;33.50;17.80;;;8.40;99.90;;;;;;5076639;28;20020;-84
2022/10/20 01:30:18;;;;;;;34.15;18.33;;;8.30;99.90;;;;;;5035830;28;20043;-83
2022/10/20 01:32:57;;;;;;;39.35;19.55;;;8.30;99.90;;;;;;5056353;28;20055;-84
2022/10/20 01:35:37;;;;;;;37.10;18.70;;;8.20;99.90;;;;;;5062650;28;20356;-84
2022/10/20 01:38:13;;;;;;;36.35;18.77;;;8.20;99.90;;;;;;5058333;28;20055;-84
2022/10/20 01:40:45;;;;;;;36.55;18.65;;;8.20;99.90;;;;;;5061443;28;20036;-85
2022/10/20 01:43:13;;;;;;;37.08;19.17;;;8.20;99.90;;;;;;5051869;28;20029;-84
2022/10/20 01:45:42;;;;;;;32.45;18.73;;;8.20;99.90;;;;;;5097122;28;20491;-84
2022/10/20 01:48:10;;;;;;;36.05;18.67;;;8.20;99.90;;;;;;5069713;28;20661;-84
2022/10/20 01:50:38;;;;;;;39.15;21.00;;;8.20;99.90;;;;;;5081277;28;20515;-84
2022/10/20 01:53:04;;;;;;;38.80;20.33;;;8.20;99.90;;;;;;5055304;28;20119;-84
2022/10/20 01:55:31;;;;;;;36.55;20.20;;;8.20;99.90;;;;;;5099504;28;20035;-84
2022/10/20 01:58:17;;;;;;;35.75;20.05;;;8.20;99.90;;;;;;5055621;28;20103;-85
2022/10/20 02:00:44;;;;;;;38.67;21.13;;;8.10;99.90;;;;;;5070174;28;20083;-84
2022/10/20 02:03:43;;;;;;;44.60;21.40;;;8.20;99.90;;;;;;5062475;28;20024;-84
2022/10/20 02:06:27;;;;;;;39.33;19.55;;;8.20;99.90;;;;;;5053833;28;20031;-84
2022/10/20 02:08:57;;;;;;;43.70;20.90;;;8.10;99.90;;;;;;5070427;28;20037;-84
2022/10/20 02:11:34;;;;;;;44.08;21.73;;;8.10;99.90;;;;;;5093361;28;20059;-84
2022/10/20 02:14:02;;;;;;;42.65;22.83;;;8.10;99.90;;;;;;5068214;28;20019;-84
2022/10/20 02:16:41;;;;;;;49.50;23.17;;;8.10;99.90;;;;;;5079568;28;20024;-85
2022/10/20 02:19:10;;;;;;;46.83;24.33;;;8.10;99.90;;;;;;5051629;28;20037;-85
2022/10/20 02:21:36;;;;;;;48.72;23.65;;;8.10;99.90;;;;;;5120192;27;20115;-84
2022/10/20 02:24:05;;;;;;;47.45;24.33;;;8.10;99.90;;;;;;5077411;28;20467;-85
2022/10/20 02:26:32;;;;;;;54.13;24.52;;;8.10;99.90;;;;;;5104565;27;20468;-84
2022/10/20 02:29:03;;;;;;;48.67;23.38;;;8.10;99.90;;;;;;5059151;28;20032;-84
2022/10/20 02:31:29;;;;;;;52.15;25.25;;;8.20;99.90;;;;;;5106037;27;20025;-84
2022/10/20 02:33:56;;;;;;;49.35;24.13;;;8.20;99.90;;;;;;5071105;28;20024;-84
2022/10/20 02:36:25;;;;;;;47.35;22.80;;;8.10;99.90;;;;;;5062294;28;20021;-84
2022/10/20 02:38:51;;;;;;;46.47;22.92;;;8.20;99.90;;;;;;5089105;28;20044;-84
2022/10/20 02:41:17;;;;;;;38.22;21.27;;;8.10;99.90;;;;;;5058516;28;20678;-84
2022/10/20 02:44:01;;;;;;;39.50;20.90;;;8.20;99.90;;;;;;5091025;28;20025;-84
2022/10/20 02:46:27;;;;;;;40.50;20.73;;;8.20;99.90;;;;;;5077483;28;20029;-83
2022/10/20 02:48:52;;;;;;;54.00;22.50;;;8.20;99.90;;;;;;5077106;28;20349;-84
2022/10/20 02:51:18;;;;;;;41.30;20.85;;;8.30;99.90;;;;;;5064742;28;20476;-84
2022/10/20 02:53:44;;;;;;;38.72;20.85;;;8.30;99.90;;;;;;5092272;28;20086;-84
2022/10/20 02:56:11;;;;;;;37.15;20.52;;;8.30;99.90;;;;;;5069984;28;20043;-84
2022/10/20 02:58:37;;;;;;;42.35;20.30;;;8.30;99.90;;;;;;5075548;28;20484;-84
2022/10/20 03:01:03;;;;;;;39.22;20.77;;;8.30;99.90;;;;;;5060271;28;20030;-85
2022/10/20 03:03:29;;;;;;;32.95;19.52;;;8.30;99.90;;;;;;5060370;28;20097;-84
2022/10/20 03:05:55;;;;;;;39.53;20.58;;;8.30;99.90;;;;;;5098488;28;20523;-84
2022/10/20 03:08:21;;;;;;;65.03;21.75;;;8.20;99.90;;;;;;5079765;28;20467;-84
2022/10/20 03:10:47;;;;;;;34.80;20.05;;;8.20;99.90;;;;;;5055320;28;20102;-85
2022/10/20 03:13:14;;;;;;;41.13;21.67;;;8.30;99.90;;;;;;5080063;28;20062;-84
2022/10/20 03:15:40;;;;;;;42.63;21.30;;;8.20;99.90;;;;;;5074708;28;20032;-84
2022/10/20 03:18:06;;;;;;;41.88;22.98;;;8.20;99.90;;;;;;5063832;28;20036;-84
2022/10/20 03:20:32;;;;;;;43.88;21.77;;;8.20;99.90;;;;;;5059309;28;20093;-85
2022/10/20 03:22:58;;;;;;;47.25;23.23;;;8.20;99.90;;;;;;5081747;28;20024;-85
2022/10/20 03:25:24;;;;;;;42.42;22.35;;;8.10;99.90;;;;;;5079491;28;20623;-84
2022/10/20 03:27:50;;;;;;;52.08;23.95;;;8.10;99.90;;;;;;5072592;28;20108;-85
2022/10/20 03:30:16;;;;;;;48.47;24.10;;;8.10;99.90;;;;;;5079058;28;20059;-85
2022/10/20 03:32:42;;;;;;;62.80;24.05;;;8.20;99.90;;;;;;5074543;28;20031;-84
2022/10/20 03:35:48;;;;;;;49.97;25.60;;;8.10;99.90;;;;;;5063948;28;20028;-84
2022/10/20 03:38:14;;;;;;;45.63;24.27;;;8.10;99.90;;;;;;5057156;28;20743;-84
2022/10/20 03:40:40;;;;;;;48.33;24.40;;;8.10;99.90;;;;;;5077051;28;20035;-84
2022/10/20 03:43:05;;;;;;;49.55;24.67;;;8.10;99.90;;;;;;5070336;28;20028;-84
2022/10/20 03:45:31;;;;;;;63.42;27.45;;;8.00;99.90;;;;;;5081009;28;20055;-84
2022/10/20 03:47:57;;;;;;;55.50;28.52;;;8.00;99.90;;;;;;5055652;28;20049;-84
2022/10/20 03:50:22;;;;;;;54.53;27.27;;;8.00;99.90;;;;;;5097170;28;20027;-84
2022/10/20 03:52:49;;;;;;;54.40;28.48;;;7.90;99.90;;;;;;5060490;28;20077;-84
2022/10/20 03:55:16;;;;;;;71.30;28.30;;;7.90;99.90;;;;;;5096090;28;20024;-85
2022/10/20 03:57:41;;;;;;;56.60;28.35;;;7.80;99.90;;;;;;5062350;28;20035;-84
2022/10/20 04:00:07;;;;;;;64.47;29.67;;;7.90;99.90;;;;;;5052268;28;20025;-84
2022/10/20 04:02:44;;;;;;;58.25;29.52;;;7.80;99.90;;;;;;5078698;28;20142;-84
2022/10/20 04:05:16;;;;;;;62.65;29.73;;;7.80;99.90;;;;;;5068112;28;20078;-84
2022/10/20 04:07:42;;;;;;;;;;;7.80;99.90;;;;;;5091068;28;20025;-84
2022/10/20 04:10:09;;;;;;;68.75;31.17;;;7.90;99.90;;;;;;5075476;28;20347;-84
2022/10/20 04:12:34;;;;;;;68.95;33.13;;;7.90;99.90;;;;;;5059339;28;20045;-85
2022/10/20 04:15:00;;;;;;;67.30;32.53;;;7.90;99.90;;;;;;5059554;28;20775;-85
2022/10/20 04:17:26;;;;;;;65.35;31.48;;;7.90;99.90;;;;;;5061430;28;20024;-86
2022/10/20 04:19:52;;;;;;;75.63;32.45;;;7.80;99.90;;;;;;5092538;28;20126;-85
2022/10/20 04:22:17;;;;;;;73.18;32.53;;;7.70;99.90;;;;;;5084521;28;20116;-85
2022/10/20 04:24:43;;;;;;;70.65;32.72;;;7.70;99.90;;;;;;5090984;28;20025;-85
2022/10/20 04:27:09;;;;;;;70.22;34.03;;;7.80;99.90;;;;;;5058664;28;20028;-85
2022/10/20 04:29:34;;;;;;;96.25;36.88;;;7.80;99.90;;;;;;5056423;28;20528;-85
2022/10/20 04:32:00;;;;;;;72.25;35.53;;;7.70;99.90;;;;;;5059088;28;20072;-85
2022/10/20 04:34:26;;;;;;;83.90;35.97;;;7.70;99.90;;;;;;5060673;28;20025;-85
2022/10/20 04:36:51;;;;;;;78.70;36.35;;;7.70;99.90;;;;;;5092313;28;20390;-84
2022/10/20 04:39:17;;;;;;;82.72;35.97;;;7.70;99.90;;;;;;5065894;28;20621;-85
2022/10/20 04:41:43;;;;;;;98.80;40.08;;;7.60;99.90;;;;;;5108268;27;20439;-85
2022/10/20 04:44:08;;;;;;;93.30;38.15;;;7.60;99.90;;;;;;5075624;28;20106;-85
2022/10/20 04:46:34;;;;;;;89.30;40.03;;;7.60;99.90;;;;;;5065733;28;20070;-85
2022/10/20 04:49:40;;;;;;;101.80;41.95;;;7.60;99.90;;;;;;5077769;28;20046;-85
2022/10/20 04:52:06;;;;;;;105.47;44.45;;;7.60;99.90;;;;;;5063175;28;20118;-85
2022/10/20 04:54:32;;;;;;;111.43;43.88;;;7.60;99.90;;;;;;5071991;28;20158;-84
2022/10/20 04:56:58;;;;;;;114.30;45.20;;;7.60;99.90;;;;;;5081633;28;20477;-85
2022/10/20 04:59:23;;;;;;;126.93;48.20;;;7.60;99.90;;;;;;5060868;28;20111;-85
2022/10/20 05:01:49;;;;;;;120.35;47.30;;;7.60;99.90;;;;;;5053666;28;20362;-85
2022/10/20 05:04:20;;;;;;;140.57;48.75;;;7.70;99.90;;;;;;5068601;28;20035;-85
2022/10/20 05:06:47;;;;;;;141.32;49.92;;;7.70;99.90;;;;;;5060783;28;20043;-85
2022/10/20 05:09:14;;;;;;;130.88;52.08;;;7.70;99.90;;;;;;5068176;28;20095;-84
2022/10/20 05:11:40;;;;;;;133.35;49.45;;;7.80;99.90;;;;;;5115091;27;20032;-85
2022/10/20 05:14:06;;;;;;;151.88;54.47;;;7.90;99.90;;;;;;5070993;28;20029;-85
2022/10/20 05:16:32;;;;;;;168.32;55.55;;;7.80;99.90;;;;;;5098452;28;20070;-85
2022/10/20 05:18:58;;;;;;;160.13;54.53;;;7.80;99.90;;;;;;5056567;28;20028;-85
2022/10/20 05:21:28;;;;;;;155.35;54.33;;;7.90;99.90;;;;;;5098339;28;20032;-85
2022/10/20 05:23:56;;;;;;;150.07;50.45;;;7.90;99.90;;;;;;5076727;28;20607;-83
2022/10/20 05:26:22;;;;;;;167.30;53.80;;;7.90;99.90;;;;;;5085271;28;20116;-85
2022/10/20 05:28:49;;;;;;;163.57;56.60;;;7.90;99.90;;;;;;5065241;28;20148;-84
2022/10/20 05:31:17;;;;;;;205.38;58.78;;;7.90;99.90;;;;;;5069033;28;20553;-85
2022/10/20 05:33:45;;;;;;;168.82;56.55;;;7.90;99.90;;;;;;5099763;28;20038;-86
2022/10/20 05:36:12;;;;;;;195.63;58.85;;;8.00;99.90;;;;;;5055449;28;20507;-85
2022/10/20 05:38:40;;;;;;;167.55;55.65;;;8.00;99.90;;;;;;5085247;28;20031;-85
2022/10/20 05:41:14;;;;;;;193.10;60.65;;;7.90;99.90;;;;;;5060568;28;20028;-85
2022/10/20 05:43:40;;;;;;;181.52;58.83;;;8.00;99.90;;;;;;5070405;28;20033;-84
2022/10/20 05:46:07;;;;;;;187.80;59.28;;;8.00;99.90;;;;;;5080682;28;20025;-86
2022/10/20 05:48:33;;;;;;;181.68;57.30;;;8.00;99.90;;;;;;5086372;28;20025;-85
2022/10/20 05:51:13;;;;;;;198.75;57.95;;;8.00;99.90;;;;;;5067343;28;20492;-85
2022/10/20 05:53:39;;;;;;;191.00;57.88;;;8.10;99.90;;;;;;5071132;28;20082;-87
2022/10/20 05:56:09;;;;;;;195.52;60.25;;;8.20;99.90;;;;;;5050414;28;20021;-88
2022/10/20 05:58:36;;;;;;;221.55;61.22;;;8.20;99.90;;;;;;5061854;28;20037;-88
2022/10/20 06:01:46;;;;;;;207.82;62.20;;;8.20;99.90;;;;;;5062334;28;20038;-87
2022/10/20 06:04:13;;;;;;;202.77;61.70;;;8.30;99.90;;;;;;5081794;28;20027;-88
2022/10/20 06:06:39;;;;;;;199.23;62.30;;;8.30;99.90;;;;;;5065403;28;20058;-88
2022/10/20 06:09:07;;;;;;;210.15;61.83;;;8.40;99.90;;;;;;5072729;28;20028;-87
2022/10/20 06:11:33;;;;;;;191.77;61.15;;;8.40;99.90;;;;;;5100174;28;20027;-88
2022/10/20 06:13:59;;;;;;;204.45;61.35;;;8.40;99.90;;;;;;5058688;28;20025;-89
2022/10/20 06:16:26;;;;;;;253.15;67.63;;;8.30;99.90;;;;;;5099744;28;20108;-88
2022/10/20 06:18:52;;;;;;;263.33;64.78;;;8.40;99.90;;;;;;5061859;28;20043;-88
2022/10/20 06:21:27;;;;;;;202.40;62.00;;;8.40;99.90;;;;;;5082808;28;20032;-87
2022/10/20 06:23:53;;;;;;;218.15;64.75;;;8.40;99.90;;;;;;5079802;28;20029;-88
2022/10/20 06:26:22;;;;;;;259.02;63.47;;;8.50;99.90;;;;;;5088147;28;20017;-88
2022/10/20 06:28:51;;;;;;;229.93;65.90;;;8.50;99.90;;;;;;5068240;28;20040;-88
2022/10/20 06:31:22;;;;;;;215.00;64.78;;;8.60;99.90;;;;;;5072292;28;20116;-87
2022/10/20 06:33:49;;;;;;;202.90;63.15;;;8.50;99.90;;;;;;5103981;28;20059;-88
2022/10/20 06:36:15;;;;;;;218.57;63.42;;;8.50;99.90;;;;;;5073824;28;20056;-88
2022/10/20 06:38:41;;;;;;;213.70;65.68;;;8.60;99.90;;;;;;5104431;28;20548;-88
2022/10/20 06:41:10;;;;;;;207.00;62.85;;;8.50;99.90;;;;;;5077040;28;20029;-88
2022/10/20 06:43:36;;;;;;;205.82;59.92;;;8.60;99.90;;;;;;5089058;28;20452;-89
2022/10/20 06:46:05;;;;;;;220.20;62.47;;;8.70;99.90;;;;;;5068209;28;20060;-88
2022/10/20 06:48:31;;;;;;;233.23;65.38;;;8.60;99.90;;;;;;5106174;27;20029;-88
2022/10/20 06:50:59;;;;;;;213.45;66.13;;;8.70;99.90;;;;;;5064030;28;20036;-88
2022/10/20 06:53:27;;;;;;;238.27;68.10;;;8.60;99.90;;;;;;5055884;28;20757;-87
2022/10/20 06:56:03;;;;;;;262.63;71.50;;;8.60;99.90;;;;;;5105431;28;20491;-88
2022/10/20 06:58:36;;;;;;;221.15;67.65;;;8.70;99.90;;;;;;5057008;28;20029;-88
2022/10/20 07:01:05;;;;;;;218.48;64.40;;;8.70;99.90;;;;;;5046256;28;20032;-88
2022/10/20 07:03:32;;;;;;;213.80;65.82;;;8.70;99.90;;;;;;5081626;28;20028;-89
2022/10/20 07:05:58;;;;;;;201.45;61.97;;;8.70;99.90;;;;;;5073639;28;20032;-88
2022/10/20 07:08:26;;;;;;;175.82;58.85;;;8.80;99.90;;;;;;5062565;28;20042;-88
2022/10/20 07:11:15;;;;;;;216.93;61.55;;;8.80;99.90;;;;;;5055199;28;20074;-88
2022/10/20 07:13:41;;;;;;;196.13;59.13;;;8.80;99.90;;;;;;5078640;28;20767;-88
2022/10/20 07:16:10;;;;;;;203.45;62.15;;;8.90;99.90;;;;;;5094117;28;20027;-88
2022/10/20 07:18:36;;;;;;;203.88;59.65;;;8.80;99.90;;;;;;5064051;28;20023;-89
2022/10/20 07:21:07;;;;;;;175.13;56.33;;;8.80;99.90;;;;;;5061277;28;20027;-89
2022/10/20 07:23:34;;;;;;;196.10;57.05;;;8.90;99.90;;;;;;5064981;28;20422;-89
2022/10/20 07:26:18;;;;;;;156.38;56.08;;;8.90;99.90;;;;;;5072155;28;20091;-88
2022/10/20 07:28:46;;;;;;;143.98;54.65;;;9.00;99.90;;;;;;5083524;28;20124;-88
2022/10/20 07:31:22;;;;;;;165.32;54.63;;;9.00;99.90;;;;;;5071856;28;20071;-88
2022/10/20 07:33:48;;;;;;;142.73;54.15;;;9.00;99.90;;;;;;5085823;28;20451;-88
2022/10/20 07:36:18;;;;;;;144.18;55.35;;;9.00;99.90;;;;;;5061253;28;20102;-88
2022/10/20 07:38:44;;;;;;;159.57;53.85;;;9.00;99.90;;;;;;5072707;28;20028;-88
2022/10/20 07:41:10;;;;;;;131.27;52.33;;;9.00;99.90;;;;;;5058974;28;20046;-88
2022/10/20 07:43:37;;;;;;;124.63;47.90;;;9.00;99.90;;;;;;5071191;28;20461;-88
2022/10/20 07:46:04;;;;;;;129.50;50.33;;;9.10;99.90;;;;;;5066416;28;20034;-88
2022/10/20 07:48:36;;;;;;;129.25;49.42;;;9.10;99.90;;;;;;5104430;27;20033;-88
2022/10/20 07:51:14;;;;;;;126.22;48.72;;;9.20;99.90;;;;;;5073161;28;20025;-88
2022/10/20 07:53:40;;;;;;;127.35;48.42;;;9.30;99.90;;;;;;5090525;28;20059;-88
2022/10/20 07:56:05;;;;;;;103.95;43.53;;;9.40;99.90;;;;;;5086775;28;20021;-89
2022/10/20 07:58:31;;;;;;;125.53;44.53;;;9.40;99.90;;;;;;5055395;28;20033;-89
2022/10/20 08:00:57;;;;;;;110.85;44.50;;;9.40;99.90;;;;;;5060186;28;20091;-88
2022/10/20 08:03:53;;;;;;;98.55;42.63;;;9.50;99.90;;;;;;5065310;28;20028;-88
2022/10/20 08:06:19;;;;;;;89.85;39.45;;;9.60;99.90;;;;;;5081413;28;20020;-88
2022/10/20 08:08:45;;;;;;;86.82;41.15;;;9.60;99.90;;;;;;5058208;28;20044;-88
2022/10/20 08:11:11;;;;;;;87.80;38.75;;;9.80;99.90;;;;;;5076999;28;20030;-88
2022/10/20 08:13:39;;;;;;;86.30;41.08;;;9.80;99.90;;;;;;5071886;28;20378;-88
2022/10/20 08:16:55;;;;;;;75.72;38.10;;;9.90;99.90;;;;;;5067348;28;20032;-88
2022/10/20 08:19:21;;;;;;;74.60;34.28;;;10.00;99.90;;;;;;5053528;28;20040;-87
2022/10/20 08:21:46;;;;;;;71.55;35.40;;;10.10;99.90;;;;;;5103334;28;20020;-88
2022/10/20 08:24:12;;;;;;;69.47;35.97;;;10.00;99.90;;;;;;5058234;28;20044;-88
2022/10/20 08:26:37;;;;;;;68.45;33.47;;;10.20;99.90;;;;;;5071474;28;20116;-87
2022/10/20 08:29:03;;;;;;;69.97;33.50;;;10.40;99.90;;;;;;5070496;28;20037;-88
2022/10/20 08:31:29;;;;;;;68.03;31.17;;;10.40;99.90;;;;;;5087355;28;20036;-88
2022/10/20 08:33:55;;;;;;;56.22;30.38;;;10.40;99.90;;;;;;5069363;28;20056;-88
2022/10/20 08:36:21;;;;;;;54.40;29.60;;;10.40;99.90;;;;;;5061031;28;20029;-88
2022/10/20 08:38:47;;;;;;;55.78;31.30;;;10.60;99.90;;;;;;5071922;28;20024;-88
2022/10/20 08:41:30;;;;;;;57.92;30.27;;;10.80;99.90;;;;;;5060838;28;20025;-88
2022/10/20 08:43:56;;;;;;;56.10;29.08;;;10.90;99.90;;;;;;5075476;28;20032;-88
2022/10/20 08:46:34;;;;;;;49.00;26.63;;;11.10;99.90;;;;;;5077064;28;20041;-87
2022/10/20 08:49:02;;;;;;;53.42;25.27;;;11.40;99.90;;;;;;5062658;28;20380;-89
2022/10/20 08:51:32;;;;;;;43.28;25.92;;;11.50;99.90;;;;;;5064681;28;20029;-88
2022/10/20 08:54:00;;;;;;;45.05;24.40;;;11.60;99.90;;;;;;5064123;28;20024;-88
2022/10/20 08:56:28;;;;;;;42.25;24.63;;;11.80;99.90;;;;;;5081404;28;20099;-88
2022/10/20 08:58:55;;;;;;;47.67;26.25;;;11.70;99.90;;;;;;5094916;28;20030;-88
2022/10/20 09:01:25;;;;;;;47.92;25.10;;;11.90;99.90;;;;;;5074893;28;20107;-88
2022/10/20 09:04:10;;;;;;;40.03;24.27;;;11.80;99.90;;;;;;5083918;28;20029;-88
2022/10/20 09:07:10;;;;;;;46.38;24.05;;;11.80;99.90;;;;;;5080047;28;20042;-88
2022/10/20 09:09:36;;;;;;;41.10;23.55;;;11.90;99.90;;;;;;5064775;28;20468;-88
2022/10/20 09:12:11;;;;;;;53.25;27.00;;;11.90;99.90;;;;;;5066142;28;20024;-88
2022/10/20 09:14:37;;;;;;;51.05;27.50;;;11.90;99.90;;;;;;5105286;27;20029;-88
2022/10/20 09:17:03;;;;;;;51.50;26.88;;;11.90;99.90;;;;;;5068097;28;20032;-88
2022/10/20 09:19:30;;;;;;;54.88;28.75;;;11.90;99.90;;;;;;5087456;28;20074;-87
2022/10/20 09:22:02;;;;;;;51.17;29.77;;;12.10;99.90;;;;;;5087408;28;20037;-89
2022/10/20 09:24:29;;;;;;;39.13;22.83;;;12.20;99.90;;;;;;5055645;28;20419;-88
2022/10/20 09:26:55;;;;;;;40.78;25.15;;;12.10;99.90;;;;;;5075568;28;20028;-88
2022/10/20 09:29:32;;;;;;;40.72;24.92;;;12.20;99.90;;;;;;5077326;28;20039;-87
2022/10/20 09:31:58;;;;;;;50.75;28.92;;;11.90;99.90;;;;;;5056960;28;20475;-88
2022/10/20 09:34:34;;;;;;;49.25;26.98;;;11.70;99.90;;;;;;5066500;28;20025;-88
2022/10/20 09:37:06;;;;;;;37.83;23.65;;;11.70;99.90;;;;;;5057368;28;20020;-88
2022/10/20 09:39:55;;;;;;;40.35;25.83;;;11.90;99.90;;;;;;5083555;28;20025;-88
2022/10/20 09:42:36;;;;;;;48.22;23.40;;;12.00;99.90;;;;;;5070691;28;20038;-89
2022/10/20 09:45:14;;;;;;;39.83;24.20;;;12.30;99.90;;;;;;5060016;28;20032;-89
2022/10/20 09:47:57;;;;;;;41.05;24.50;;;12.40;99.90;;;;;;5066734;28;20032;-87
2022/10/20 09:50:32;;;;;;;40.60;23.52;;;12.60;99.90;;;;;;5092408;28;20119;-88
2022/10/20 09:53:01;;;;;;;36.83;22.63;;;12.40;99.90;;;;;;5078066;28;20030;-88
2022/10/20 09:55:32;;;;;;;42.88;22.40;;;12.20;99.90;;;;;;5103547;28;20417;-89
2022/10/20 09:58:01;;;;;;;39.88;24.20;;;12.20;99.90;;;;;;5061369;28;20029;-89
2022/10/20 10:00:31;;;;;;;50.13;27.77;;;12.10;99.90;;;;;;5089538;28;20057;-87
2022/10/20 10:03:08;;;;;;;39.90;24.25;;;12.10;99.90;;;;;;5072544;28;20374;-88
2022/10/20 10:05:34;;;;;;;47.70;23.00;;;12.20;99.90;;;;;;5065998;28;20078;-88
2022/10/20 10:08:00;;;;;;;35.70;22.55;;;12.50;99.90;;;;;;5065036;28;20028;-88
2022/10/20 10:10:29;;;;;;;36.35;21.38;;;12.50;99.90;;;;;;5075779;28;20028;-89
2022/10/20 10:12:59;;;;;;;37.08;21.92;;;12.40;99.90;;;;;;5082127;28;20050;-87
2022/10/20 10:15:30;;;;;;;42.25;21.33;;;12.70;99.90;;;;;;5062036;28;20025;-87
2022/10/20 10:17:58;;;;;;;40.90;21.92;;;12.50;99.90;;;;;;5079362;28;20497;-88
2022/10/20 10:20:37;;;;;;;34.30;21.00;;;12.40;99.90;;;;;;5063894;28;20032;-88
2022/10/20 10:23:19;;;;;;;46.08;22.20;;;12.20;99.90;;;;;;5083933;28;20088;-88
2022/10/20 10:25:45;;;;;;;32.72;20.98;;;12.10;99.90;;;;;;5078674;28;20066;-88
2022/10/20 10:28:32;;;;;;;39.60;22.83;;;12.30;99.90;;;;;;5095077;28;20443;-88
2022/10/20 10:31:22;;;;;;;34.72;22.25;;;12.30;99.90;;;;;;5055932;28;20028;-88
2022/10/20 10:34:11;;;;;;;32.00;20.65;;;12.60;99.90;;;;;;5084979;28;20036;-89
2022/10/20 10:36:37;;;;;;;33.88;20.88;;;12.90;99.90;;;;;;5075214;28;20028;-89
2022/10/20 10:39:11;;;;;;;33.20;20.95;;;13.00;99.90;;;;;;5089741;28;20071;-88
2022/10/20 10:42:01;;;;;;;33.28;19.85;;;13.10;99.90;;;;;;5059244;28;20119;-88
2022/10/20 10:44:26;;;;;;;35.17;19.33;;;13.20;99.90;;;;;;5058808;28;20028;-89
2022/10/20 10:47:25;;;;;;;34.63;19.85;;;13.50;99.90;;;;;;5097558;28;20118;-88
2022/10/20 10:50:02;;;;;;;27.02;18.17;;;13.50;99.90;;;;;;5076102;28;20116;-89
2022/10/20 10:56:19;;;;;;;33.20;18.42;;;13.40;99.90;;;;;;5064133;28;20032;-88
2022/10/20 10:59:03;;;;;;;32.22;18.23;;;13.50;99.90;;;;;;5084316;28;20326;-89
2022/10/20 11:01:58;;;;;;;27.10;17.98;;;13.50;99.90;;;;;;5053880;28;20035;-88
2022/10/20 11:08:47;;;;;;;24.63;17.30;;;13.80;99.90;;;;;;5072554;28;20050;-88
2022/10/20 11:11:45;;;;;;;31.48;18.52;;;13.80;99.90;;;;;;5060763;28;20021;-89
2022/10/20 11:14:37;;;;;;;24.75;16.92;;;13.80;99.90;;;;;;5072047;28;20031;-88
2022/10/20 11:17:15;;;;;;;;;;;14.00;99.90;;;;;;5077405;28;20035;-88
2022/10/20 11:27:50;;;;;;;34.65;18.17;;;14.10;99.90;;;;;;5073198;28;20081;-89
2022/10/20 11:30:20;;;;;;;29.48;17.20;;;14.40;99.90;;;;;;5074406;28;20043;-88
2022/10/20 11:33:04;;;;;;;26.08;16.35;;;14.50;99.90;;;;;;5058923;28;20475;-89
2022/10/20 11:35:43;;;;;;;28.90;18.48;;;14.50;99.90;;;;;;5082013;28;20026;-88
2022/10/20 11:42:11;;;;;;;30.55;16.77;;;14.30;99.90;;;;;;5081657;28;20081;-88
2022/10/20 11:44:40;;;;;;;39.20;21.42;;;14.10;99.90;;;;;;5073053;28;20025;-88
2022/10/20 11:47:20;;;;;;;33.17;19.42;;;14.00;99.90;;;;;;5064469;28;20024;-89
2022/10/20 11:49:46;;;;;;;36.90;19.23;;;14.00;99.90;;;;;;5058528;28;20083;-88
2022/10/20 11:52:23;;;;;;;30.85;18.15;;;13.90;99.90;;;;;;5064512;28;20020;-89
2022/10/20 11:55:14;;;;;;;29.63;17.58;;;13.80;99.90;;;;;;5077909;28;20383;-90
2022/10/20 11:57:48;;;;;;;39.22;18.80;;;13.80;99.90;;;;;;5064050;28;20032;-89
2022/10/20 12:00:39;;;;;;;42.97;18.20;;;13.80;99.90;;;;;;5053414;28;20053;-89
2022/10/20 12:03:37;;;;;;;28.42;18.48;;;13.60;99.90;;;;;;5056125;28;20028;-89
2022/10/20 12:06:42;;;;;;;30.77;18.55;;;13.70;99.90;;;;;;5066322;28;20387;-88
2022/10/20 12:09:42;;;;;;;32.28;18.50;;;13.70;99.90;;;;;;5053534;28;20052;-89
2022/10/20 12:12:29;;;;;;;31.17;17.80;;;13.60;99.90;;;;;;5075816;28;20020;-88
2022/10/20 12:14:59;;;;;;;30.48;18.48;;;13.50;99.90;;;;;;5077519;28;20035;-88
2022/10/20 12:17:39;;;;;;;30.33;18.33;;;13.50;99.90;;;;;;5079550;28;20043;-88
2022/10/20 12:20:28;;;;;;;29.87;18.23;;;13.50;99.90;;;;;;5049501;28;20119;-89
2022/10/20 12:23:01;;;;;;;30.75;19.10;;;13.50;99.90;;;;;;5081011;28;20039;-89
2022/10/20 12:25:54;;;;;;;32.40;20.38;;;13.60;99.90;;;;;;5079487;28;20028;-88
2022/10/20 12:28:21;;;;;;;31.10;18.60;;;13.50;99.90;;;;;;5061257;28;20032;-88
2022/10/20 12:30:58;;;;;;;30.77;18.67;;;13.40;99.90;;;;;;5058693;28;20024;-89
2022/10/20 12:34:00;;;;;;;36.70;18.77;;;13.60;99.90;;;;;;5081251;28;20020;-89
2022/10/20 12:39:54;;;;;;;36.10;18.45;;;13.80;99.90;;;;;;5050605;28;20033;-88
2022/10/20 12:42:28;;;;;;;25.53;17.00;;;14.00;99.90;;;;;;5018753;28;20049;-88
2022/10/20 12:45:01;;;;;;;34.10;20.23;;;13.90;99.90;;;;;;5049783;28;20036;-88
2022/10/20 12:47:29;;;;;;;35.70;19.67;;;13.90;99.90;;;;;;5080455;28;20043;-88
2022/10/20 12:50:07;;;;;;;24.10;17.45;;;13.70;99.90;;;;;;5076606;28;20035;-88
2022/10/20 12:52:37;;;;;;;29.35;16.83;;;13.70;99.90;;;;;;5081281;28;20456;-84
2022/10/20 12:55:17;;;;;;;30.67;18.60;;;13.60;99.90;;;;;;5076519;28;20021;-84
2022/10/20 12:57:44;;;;;;;30.75;19.77;;;13.50;99.90;;;;;;5079693;28;20043;-84
2022/10/20 13:00:20;;;;;;;34.78;19.63;;;13.40;99.90;;;;;;5056114;28;20024;-85
2022/10/20 13:02:57;;;;;;;34.72;18.48;;;13.40;99.90;;;;;;5063396;28;20132;-84
2022/10/20 13:05:42;;;;;;;35.25;19.05;;;13.40;99.90;;;;;;5082675;28;20021;-84
2022/10/20 13:08:20;;;;;;;34.90;20.35;;;13.40;99.90;;;;;;5069217;28;20162;-85
2022/10/20 13:10:46;;;;;;;34.88;19.95;;;13.40;99.90;;;;;;5059762;28;20036;-84
2022/10/20 13:13:18;;;;;;;31.33;19.40;;;13.30;99.90;;;;;;5060054;28;20024;-84
2022/10/20 13:15:44;;;;;;;36.70;20.38;;;13.30;99.90;;;;;;5071327;28;20801;-84
2022/10/20 13:18:14;;;;;;;37.72;21.25;;;13.20;99.90;;;;;;5061541;28;20119;-85